Time;durP1;ratioP1;P1;durP2;ratioP2;P2;SDS_P1;SDS_P2;PMS_P1;PMS_P2;Temp;Humidity;BMP_temperature;BMP_pressure;BME280_temperature;BME280_humidity;BME280_pressure;Samples;Min_cycle;Max_cycle;Signal;HPM_P1;HPM_P2
2023/05/23 00:02:12;;;;;;;;;;;;;;;17.41;64.20;99221.31;5053646;28;19916;-78
2023/05/23 00:04:38;;;;;;;;;;;;;;;17.45;63.61;99208.31;5053736;28;19948;-79
2023/05/23 00:07:03;;;;;;;;;;;;;;;17.49;63.92;99217.47;5053721;28;19912;-79
2023/05/23 00:09:28;;;;;;;;;;;;;;;17.51;63.54;99215.38;5053085;28;19916;-79
2023/05/23 00:11:53;;;;;;;;;;;;;;;17.48;63.74;99215.84;5054053;28;20004;-79
2023/05/23 00:14:19;;;;;;;;;;;;;;;17.50;63.97;99218.28;5053303;28;19909;-79
2023/05/23 00:16:46;;;;;;;;;;;;;;;17.54;63.14;99222.13;5053599;28;19978;-79
2023/05/23 00:19:13;;;;;;;;;;;;;;;17.55;63.35;99221.09;5053266;28;20003;-79
2023/05/23 00:21:39;;;;;;;;;;;;;;;17.56;63.33;99212.84;5053121;28;19909;-79
2023/05/23 00:24:04;;;;;;;;;;;;;;;17.53;63.98;99213.31;5053030;28;19909;-79
2023/05/23 00:26:30;;;;;;;;;;;;;;;17.56;63.79;99218.19;5052936;28;19956;-79
2023/05/23 00:28:56;;;;;;;;;;;;;;;17.58;63.25;99213.44;5051719;28;20340;-78
2023/05/23 00:31:21;;;;;;;;;;;;;;;17.63;63.24;99210.88;5052978;28;19909;-78
2023/05/23 00:33:47;;;;;;;;;;;;;;;17.66;63.31;99205.09;5053062;28;19909;-79
2023/05/23 00:36:12;;;;;;;;;;;;;;;17.70;61.97;99200.91;5051654;28;19995;-78
2023/05/23 00:38:38;;;;;;;;;;;;;;;17.69;62.66;99209.97;5052836;28;19909;-78
2023/05/23 00:41:04;;;;;;;;;;;;;;;17.69;63.66;99209.16;5052758;28;19912;-79
2023/05/23 00:43:30;;;;;;;;;;;;;;;17.71;62.69;99223.09;5052699;28;19920;-79
2023/05/23 00:45:55;;;;;;;;;;;;;;;17.70;62.45;99208.13;5051316;28;19913;-78
2023/05/23 00:48:21;;;;;;;;;;;;;;;17.69;62.92;99209.16;5052656;28;19932;-79
2023/05/23 00:50:46;;;;;;;;;;;;;;;17.67;63.71;99211.25;5052585;28;19997;-79
2023/05/23 00:53:12;;;;;;;;;;;;;;;17.63;62.55;99208.19;5052464;28;19909;-79
2023/05/23 00:55:38;;;;;;;;;;;;;;;17.63;62.74;99212.72;5052367;28;20301;-79
2023/05/23 00:58:03;;;;;;;;;;;;;;;17.61;62.41;99206.81;5052594;28;19908;-79
2023/05/23 01:00:29;;;;;;;;;;;;;;;17.58;62.01;99207.28;5052522;28;20427;-78
2023/05/23 01:02:54;;;;;;;;;;;;;;;17.55;62.09;99199.72;5052452;28;20405;-79
2023/05/23 01:05:21;;;;;;;;;;;;;;;17.53;62.40;99194.63;5052349;28;19959;-79
2023/05/23 01:07:47;;;;;;;;;;;;;;;17.50;62.45;99189.75;5051054;28;20368;-79
2023/05/23 01:10:13;;;;;;;;;;;;;;;17.51;62.45;99193.22;5052342;28;19913;-79
2023/05/23 01:12:45;;;;;;;;;;;;;;;17.45;63.25;99195.78;5052363;28;20359;-79
2023/05/23 01:15:18;;;;;;;;;;;;;;;17.41;62.96;99191.13;5052402;28;19909;-79
2023/05/23 01:17:49;;;;;;;;;;;;;;;17.45;62.77;99184.28;5052037;28;19909;-79
2023/05/23 01:20:35;;;;;;;;;;;;;;;17.45;63.03;99189.63;5051269;28;20343;-79
2023/05/23 01:23:22;;;;;;;;;;;;;;;17.46;62.73;99188.59;5048278;28;19958;-79
2023/05/23 01:25:48;;;;;;;;;;;;;;;17.47;62.25;99188.34;5050726;28;19913;-79
2023/05/23 01:28:18;;;;;;;;;;;;;;;17.43;62.84;99183.72;5050686;28;19923;-79
2023/05/23 01:30:44;;;;;;;;;;;;;;;17.41;62.60;99186.59;5053010;28;19908;-78
2023/05/23 01:33:12;;;;;;;;;;;;;;;17.43;62.34;99183.72;5052128;28;20042;-77
2023/05/23 01:35:38;;;;;;;;;;;;;;;17.43;62.35;99181.84;5052085;28;19913;-78
2023/05/23 01:38:04;;;;;;;;;;;;;;;17.40;62.47;99182.31;5051977;28;20332;-78
2023/05/23 01:40:29;;;;;;;;;;;;;;;17.36;62.50;99177.66;5051936;28;19909;-77
2023/05/23 01:42:56;;;;;;;;;;;;;;;17.35;62.69;99182.19;5052044;28;19909;-78
2023/05/23 01:45:23;;;;;;;;;;;;;;;17.33;62.41;99184.28;5052205;28;19913;-78
2023/05/23 01:47:49;;;;;;;;;;;;;;;17.28;63.22;99180.69;5052428;28;19908;-78
2023/05/23 01:50:15;;;;;;;;;;;;;;;17.26;62.81;99180.91;5052604;28;19905;-79
2023/05/23 01:52:41;;;;;;;;;;;;;;;17.24;62.62;99184.84;5051779;28;19913;-79
2023/05/23 01:55:08;;;;;;;;;;;;;;;17.22;62.90;99190.41;5052176;28;19928;-79
2023/05/23 01:57:35;;;;;;;;;;;;;;;17.14;62.69;99188.91;5052928;28;19909;-79
2023/05/23 02:00:00;;;;;;;;;;;;;;;17.14;62.71;99188.06;5052201;28;19952;-79
2023/05/23 02:02:25;;;;;;;;;;;;;;;17.14;62.94;99196.09;5051831;28;19908;-78
2023/05/23 02:04:52;;;;;;;;;;;;;;;17.08;62.80;99197.78;5051675;28;19908;-78
2023/05/23 02:07:21;;;;;;;;;;;;;;;17.06;62.97;99194.53;5051858;28;19917;-78
2023/05/23 02:09:47;;;;;;;;;;;;;;;17.07;63.05;99195.34;5056024;28;20389;-78
2023/05/23 02:12:12;;;;;;;;;;;;;;;17.08;63.20;99200.44;5055889;28;19971;-78
2023/05/23 02:14:38;;;;;;;;;;;;;;;17.06;63.59;99194.53;5055824;28;20378;-79
2023/05/23 02:17:03;;;;;;;;;;;;;;;17.07;63.33;99201.50;5055917;28;19916;-79
2023/05/23 02:19:29;;;;;;;;;;;;;;;17.04;63.16;99204.63;5055805;28;19908;-78
2023/05/23 02:21:54;;;;;;;;;;;;;;;17.03;63.30;99208.31;5055849;28;20430;-79
2023/05/23 02:24:19;;;;;;;;;;;;;;;17.00;62.44;99200.78;5055684;28;19909;-79
2023/05/23 02:26:45;;;;;;;;;;;;;;;16.94;63.55;99201.69;5055568;28;20439;-79
2023/05/23 02:29:10;;;;;;;;;;;;;;;16.93;62.79;99197.38;5055309;28;19916;-79
2023/05/23 02:31:35;;;;;;;;;;;;;;;16.90;63.39;99205.03;5055422;28;19958;-79
2023/05/23 02:34:00;;;;;;;;;;;;;;;16.92;62.24;99202.94;5055442;28;19962;-79
2023/05/23 02:36:26;;;;;;;;;;;;;;;16.88;63.44;99197.25;5055725;28;20308;-79
2023/05/23 02:38:51;;;;;;;;;;;;;;;16.91;62.95;99204.81;5055231;28;19974;-79
2023/05/23 02:41:16;;;;;;;;;;;;;;;16.92;63.37;99198.44;5056021;28;19909;-78
2023/05/23 02:43:43;;;;;;;;;;;;;;;16.97;62.22;99201.22;5055882;28;19913;-79
2023/05/23 02:46:09;;;;;;;;;;;;;;;16.95;62.62;99203.31;5055449;28;19912;-78
2023/05/23 02:48:34;;;;;;;;;;;;;;;16.92;62.78;99201.09;5055102;28;20446;-79
2023/05/23 02:51:00;;;;;;;;;;;;;;;16.93;62.52;99208.06;5055628;28;19960;-79
2023/05/23 02:53:25;;;;;;;;;;;;;;;16.92;62.37;99203.75;5055111;28;19909;-78
2023/05/23 02:55:51;;;;;;;;;;;;;;;16.86;62.50;99212.69;5055008;28;19909;-79
2023/05/23 02:58:16;;;;;;;;;;;;;;;16.86;62.66;99203.88;5053667;28;19912;-78
2023/05/23 03:00:42;;;;;;;;;;;;;;;16.89;62.79;99206.06;5054827;28;19908;-79
2023/05/23 03:03:08;;;;;;;;;;;;;;;16.89;62.47;99206.06;5054825;28;20369;-79
2023/05/23 03:05:33;;;;;;;;;;;;;;;16.80;62.49;99203.72;5053346;28;19995;-80
2023/05/23 03:07:59;;;;;;;;;;;;;;;16.78;63.18;99213.00;5054554;28;19912;-79
2023/05/23 03:10:24;;;;;;;;;;;;;;;16.82;62.04;99208.84;5053356;28;19917;-78
2023/05/23 03:12:49;;;;;;;;;;;;;;;16.80;62.65;99214.38;5054716;28;19909;-79
2023/05/23 03:15:15;;;;;;;;;;;;;;;16.82;62.48;99212.31;5054690;28;19955;-79
2023/05/23 03:17:40;;;;;;;;;;;;;;;16.82;62.56;99204.31;5054943;28;19966;-78
2023/05/23 03:20:08;;;;;;;;;;;;;;;16.88;61.91;99210.59;5053501;28;19909;-78
2023/05/23 03:22:34;;;;;;;;;;;;;;;16.87;62.36;99206.31;5055240;28;19916;-78
2023/05/23 03:24:59;;;;;;;;;;;;;;;16.89;62.81;99209.56;5054010;28;19908;-78
2023/05/23 03:27:24;;;;;;;;;;;;;;;16.89;62.68;99209.56;5053074;28;20034;-79
2023/05/23 03:29:50;;;;;;;;;;;;;;;16.80;63.43;99209.06;5054354;28;19908;-79
2023/05/23 03:32:15;;;;;;;;;;;;;;;16.80;62.80;99213.59;5054181;28;19988;-79
2023/05/23 03:34:40;;;;;;;;;;;;;;;16.80;63.06;99216.25;5054360;28;19995;-79
2023/05/23 03:37:06;;;;;;;;;;;;;;;16.82;62.87;99211.50;5054265;28;20319;-79
2023/05/23 03:39:31;;;;;;;;;;;;;;;16.81;62.56;99224.03;5054411;28;19947;-78
2023/05/23 03:41:56;;;;;;;;;;;;;;;16.83;63.07;99213.13;5054289;28;19916;-79
2023/05/23 03:44:21;;;;;;;;;;;;;;;16.87;62.86;99219.63;5054283;28;20312;-78
2023/05/23 03:46:47;;;;;;;;;;;;;;;16.92;62.26;99216.28;5052724;28;19919;-78
2023/05/23 03:49:12;;;;;;;;;;;;;;;16.96;62.26;99228.94;5054285;28;19908;-78
2023/05/23 03:51:37;;;;;;;;;;;;;;;16.94;62.30;99220.34;5054350;28;19963;-78
2023/05/23 03:54:02;;;;;;;;;;;;;;;16.94;62.60;99216.88;5054599;28;19959;-79
2023/05/23 03:56:27;;;;;;;;;;;;;;;16.95;62.45;99221.16;5055406;28;19912;-79
2023/05/23 03:58:53;;;;;;;;;;;;;;;16.98;62.21;99218.03;5054491;28;19909;-79
2023/05/23 04:01:18;;;;;;;;;;;;;;;16.99;61.87;99231.16;5053972;28;20340;-79
2023/05/23 04:03:43;;;;;;;;;;;;;;;16.99;62.24;99228.50;5053864;28;19915;-79
2023/05/23 04:06:09;;;;;;;;;;;;;;;16.98;62.40;99223.38;5053777;28;19963;-78
2023/05/23 04:08:34;;;;;;;;;;;;;;;16.99;61.65;99225.81;5053653;28;19908;-79
2023/05/23 04:11:00;;;;;;;;;;;;;;;16.96;61.88;99228.13;5054042;28;19908;-79
2023/05/23 04:13:26;;;;;;;;;;;;;;;16.89;62.02;99227.41;5053711;28;19908;-79
2023/05/23 04:15:51;;;;;;;;;;;;;;;16.90;62.03;99224.50;5053851;28;20309;-79
2023/05/23 04:18:16;;;;;;;;;;;;;;;16.94;61.41;99231.03;5053592;28;20003;-79
2023/05/23 04:20:42;;;;;;;;;;;;;;;16.94;61.87;99219.53;5053567;28;20448;-79
2023/05/23 04:23:07;;;;;;;;;;;;;;;16.98;61.84;99234.03;5053780;28;19912;-79
2023/05/23 04:25:33;;;;;;;;;;;;;;;17.00;61.77;99234.63;5054348;28;19917;-78
2023/05/23 04:27:58;;;;;;;;;;;;;;;17.01;61.41;99229.06;5053508;28;19917;-78
2023/05/23 04:30:24;;;;;;;;;;;;;;;17.02;61.32;99230.69;5052725;28;19915;-79
2023/05/23 04:32:49;;;;;;;;;;;;;;;17.08;61.38;99235.13;5053255;28;19941;-78
2023/05/23 04:35:14;;;;;;;;;;;;;;;17.16;61.35;99236.69;5052973;28;19978;-78
2023/05/23 04:37:41;;;;;;;;;;;;;;;17.17;61.56;99232.97;5052940;28;20427;-79
2023/05/23 04:40:06;;;;;;;;;;;;;;;17.20;61.14;99248.53;5052825;28;19992;-79
2023/05/23 04:42:32;;;;;;;;;;;;;;;17.24;61.00;99244.34;5052889;28;20039;-78
2023/05/23 04:44:57;;;;;;;;;;;;;;;17.29;61.36;99249.00;5052972;28;19932;-78
2023/05/23 04:47:23;;;;;;;;;;;;;;;17.38;60.86;99242.31;5053118;28;20330;-78
2023/05/23 04:49:49;;;;;;;;;;;;;;;17.42;60.61;99252.28;5051717;28;19909;-78
2023/05/23 04:52:17;;;;;;;;;;;;;;;17.42;60.89;99251.47;5052979;28;19916;-78
2023/05/23 04:54:43;;;;;;;;;;;;;;;17.43;60.71;99253.09;5052880;28;19913;-78
2023/05/23 04:57:09;;;;;;;;;;;;;;;17.44;60.53;99246.72;5052764;28;20363;-78
2023/05/23 04:59:34;;;;;;;;;;;;;;;17.43;60.76;99250.44;5053000;28;19948;-78
2023/05/23 05:01:59;;;;;;;;;;;;;;;17.46;60.58;99255.31;5054017;28;19935;-78
2023/05/23 05:04:25;;;;;;;;;;;;;;;17.42;60.91;99248.81;5054644;28;19944;-78
2023/05/23 05:06:51;;;;;;;;;;;;;;;17.48;61.06;99255.91;5052957;28;19913;-78
2023/05/23 05:09:16;;;;;;;;;;;;;;;17.55;60.37;99250.44;5052771;28;20373;-78
2023/05/23 05:11:42;;;;;;;;;;;;;;;17.61;61.10;99254.88;5052522;28;19950;-78
2023/05/23 05:14:07;;;;;;;;;;;;;;;17.66;61.33;99255.00;5052830;28;19978;-79
2023/05/23 05:16:32;;;;;;;;;;;;;;;17.70;61.17;99254.31;5052799;28;19912;-78
2023/05/23 05:18:57;;;;;;;;;;;;;;;17.76;61.10;99263.25;5052576;28;20009;-78
2023/05/23 05:21:23;;;;;;;;;;;;;;;17.83;60.83;99260.47;5050967;28;19909;-77
2023/05/23 05:23:48;;;;;;;;;;;;;;;17.79;61.04;99258.28;5052305;28;19916;-78
2023/05/23 05:26:13;;;;;;;;;;;;;;;17.86;60.80;99263.53;5050718;28;19971;-78
2023/05/23 05:28:39;;;;;;;;;;;;;;;17.93;61.00;99272.25;5050833;28;19924;-79
2023/05/23 05:31:05;;;;;;;;;;;;;;;17.99;60.65;99270.50;5051784;28;19908;-78
2023/05/23 05:33:34;;;;;;;;;;;;;;;18.05;60.63;99278.41;5051953;28;19916;-79
2023/05/23 05:36:01;;;;;;;;;;;;;;;18.10;60.41;99278.50;5051962;28;20309;-80
2023/05/23 05:38:26;;;;;;;;;;;;;;;18.16;60.18;99276.75;5050644;28;19916;-79
2023/05/23 05:40:51;;;;;;;;;;;;;;;18.16;60.53;99281.28;5051449;28;19958;-79
2023/05/23 05:43:16;;;;;;;;;;;;;;;18.22;59.92;99283.03;5049538;28;19912;-79
2023/05/23 05:45:42;;;;;;;;;;;;;;;18.13;60.20;99279.91;5049463;28;19929;-78
2023/05/23 05:48:07;;;;;;;;;;;;;;;18.09;61.25;99281.41;5050147;28;20003;-78
2023/05/23 05:50:32;;;;;;;;;;;;;;;18.07;60.93;99286.19;5051164;28;19920;-78
2023/05/23 05:52:57;;;;;;;;;;;;;;;18.07;60.14;99283.50;5051482;28;19916;-79
2023/05/23 05:55:23;;;;;;;;;;;;;;;18.06;60.54;99290.72;5051042;28;19909;-79
2023/05/23 05:57:48;;;;;;;;;;;;;;;18.10;61.28;99291.88;5051781;28;19962;-78
2023/05/23 06:00:14;;;;;;;;;;;;;;;18.13;60.39;99287.91;5050074;28;19913;-79
2023/05/23 06:02:42;;;;;;;;;;;;;;;18.14;60.58;99292.22;5051518;28;19932;-79
2023/05/23 06:05:10;;;;;;;;;;;;;;;18.18;61.19;99285.34;5049897;28;19912;-79
2023/05/23 06:07:36;;;;;;;;;;;;;;;18.26;60.50;99290.34;5051005;28;20286;-79
2023/05/23 06:10:02;;;;;;;;;;;;;;;18.33;59.91;99290.22;5051458;28;19915;-79
2023/05/23 06:12:27;;;;;;;;;;;;;;;18.41;59.86;99293.34;5049930;28;19912;-79
2023/05/23 06:14:53;;;;;;;;;;;;;;;18.45;60.15;99295.56;5051570;28;19921;-79
2023/05/23 06:17:18;;;;;;;;;;;;;;;18.49;59.24;99286.81;5050661;28;20273;-79
2023/05/23 06:19:43;;;;;;;;;;;;;;;18.54;59.49;99291.47;5052007;28;19916;-79
2023/05/23 06:22:08;;;;;;;;;;;;;;;18.59;59.53;99288.94;5051848;28;19908;-79
2023/05/23 06:24:34;;;;;;;;;;;;;;;18.63;60.19;99290.09;5052073;28;19909;-79
2023/05/23 06:26:59;;;;;;;;;;;;;;;18.69;59.34;99291.84;5051347;28;20397;-79
2023/05/23 06:29:24;;;;;;;;;;;;;;;18.75;59.49;99293.56;5051744;28;20321;-78
2023/05/23 06:31:50;;;;;;;;;;;;;;;18.81;59.21;99281.91;5051893;28;19963;-78
2023/05/23 06:34:15;;;;;;;;;;;;;;;18.86;58.80;99282.00;5051837;28;19913;-77
2023/05/23 06:36:41;;;;;;;;;;;;;;;18.85;58.83;99274.22;5051587;28;19913;-79
2023/05/23 06:39:08;;;;;;;;;;;;;;;18.92;58.47;99277.56;5051738;28;19990;-78
2023/05/23 06:41:35;;;;;;;;;;;;;;;18.99;58.43;99273.69;5050564;28;19946;-79
2023/05/23 06:44:00;;;;;;;;;;;;;;;19.11;58.22;99275.50;5050268;28;19931;-79
2023/05/23 06:46:25;;;;;;;;;;;;;;;19.17;57.92;99283.41;5051121;28;20001;-78
2023/05/23 06:48:51;;;;;;;;;;;;;;;19.23;57.89;99278.94;5051583;28;20928;-79
2023/05/23 06:51:16;;;;;;;;;;;;;;;19.26;57.80;99281.94;5051472;28;19992;-78
2023/05/23 06:53:41;;;;;;;;;;;;;;;19.29;57.41;99273.44;5051674;28;19952;-78
2023/05/23 06:56:07;;;;;;;;;;;;;;;19.33;57.15;99279.97;5055302;28;19916;-78
2023/05/23 06:58:32;;;;;;;;;;;;;;;19.41;57.24;99270.72;5055689;28;19909;-77
2023/05/23 07:00:57;;;;;;;;;;;;;;;19.44;57.62;99264.88;5055359;28;19987;-79
2023/05/23 07:03:22;;;;;;;;;;;;;;;19.48;57.39;99266.03;5055495;28;20393;-78
2023/05/23 07:05:48;;;;;;;;;;;;;;;19.56;57.03;99262.16;5055755;28;19916;-77
2023/05/23 07:08:13;;;;;;;;;;;;;;;19.63;56.85;99265.50;5055519;28;19915;-77
2023/05/23 07:10:40;;;;;;;;;;;;;;;19.61;56.88;99265.72;5054801;28;19920;-78
2023/05/23 07:13:05;;;;;;;;;;;;;;;19.56;56.86;99262.16;5053915;28;19908;-78
2023/05/23 07:15:30;;;;;;;;;;;;;;;19.54;57.16;99265.09;5054422;28;19908;-79
2023/05/23 07:17:56;;;;;;;;;;;;;;;19.65;57.11;99272.22;5054198;28;19944;-79
2023/05/23 07:20:21;;;;;;;;;;;;;;;19.77;56.68;99266.78;5054091;28;20374;-78
2023/05/23 07:22:46;;;;;;;;;;;;;;;19.88;56.73;99267.75;5053788;28;19919;-78
2023/05/23 07:25:11;;;;;;;;;;;;;;;19.99;56.43;99267.66;5053914;28;20113;-78
2023/05/23 07:27:37;;;;;;;;;;;;;;;20.04;56.10;99271.47;5053918;28;19917;-79
2023/05/23 07:30:03;;;;;;;;;;;;;;;20.09;56.13;99271.56;5053829;28;19913;-78
2023/05/23 07:32:28;;;;;;;;;;;;;;;20.17;56.07;99271.16;5052727;28;20294;-79
2023/05/23 07:34:53;;;;;;;;;;;;;;;20.21;55.66;99273.09;5053921;28;19916;-79
2023/05/23 07:37:19;;;;;;;;;;;;;;;20.26;55.28;99272.34;5054020;28;19919;-79
2023/05/23 07:39:44;;;;;;;;;;;;;;;20.30;55.32;99273.47;5053931;28;19919;-79
2023/05/23 07:42:09;;;;;;;;;;;;;;;20.40;55.49;99270.94;5053511;28;20309;-79
2023/05/23 07:44:35;;;;;;;;;;;;;;;20.42;55.50;99270.72;5054210;28;20440;-78
2023/05/23 07:47:00;;;;;;;;;;;;;;;20.43;55.39;99267.78;5053063;28;20429;-78
2023/05/23 07:49:25;;;;;;;;;;;;;;;20.36;55.26;99244.84;5052589;28;20005;-78
2023/05/23 07:51:51;;;;;;;;;;;;;;;20.57;55.35;99273.56;5052385;28;19947;-79
2023/05/23 07:54:16;;;;;;;;;;;;;;;20.50;55.75;99272.94;5054070;28;19913;-78
2023/05/23 07:56:42;;;;;;;;;;;;;;;20.46;55.76;99279.88;5054347;28;20400;-78
2023/05/23 07:59:07;;;;;;;;;;;;;;;20.39;55.88;99281.91;5053223;28;19915;-79
2023/05/23 08:01:32;;;;;;;;;;;;;;;20.40;55.90;99279.00;5052886;28;19988;-77
2023/05/23 08:03:58;;;;;;;;;;;;;;;20.42;55.78;99278.75;5053094;28;19909;-77
2023/05/23 08:06:23;;;;;;;;;;;;;;;20.47;55.77;99278.81;5052774;28;20007;-78
2023/05/23 08:08:49;;;;;;;;;;;;;;;20.49;55.84;99276.69;5053268;28;19909;-76
2023/05/23 08:11:15;;;;;;;;;;;;;;;20.57;55.67;99270.91;5053163;28;20912;-78
2023/05/23 08:13:40;;;;;;;;;;;;;;;20.61;55.47;99274.69;5053604;28;20377;-78
2023/05/23 08:16:05;;;;;;;;;;;;;;;20.69;55.25;99270.75;5052277;28;19930;-78
2023/05/23 08:18:30;;;;;;;;;;;;;;;20.77;55.02;99276.50;5052995;28;19908;-78
2023/05/23 08:20:56;;;;;;;;;;;;;;;20.84;54.74;99274.47;5053469;28;19916;-78
2023/05/23 08:23:21;;;;;;;;;;;;;;;21.01;54.64;99273.56;5052373;28;19991;-77
2023/05/23 08:25:46;;;;;;;;;;;;;;;21.10;54.27;99269.38;5052987;28;19940;-75
2023/05/23 08:28:11;;;;;;;;;;;;;;;21.25;53.85;99264.97;5053584;28;19917;-77
2023/05/23 08:30:37;;;;;;;;;;;;;;;21.40;53.41;99263.50;5053468;28;20404;-77
2023/05/23 08:33:03;;;;;;;;;;;;;;;21.52;53.31;99269.50;5052396;28;19918;-77
2023/05/23 08:35:33;;;;;;;;;;;;;;;21.49;53.06;99261.97;5052469;28;19943;-78
2023/05/23 08:38:00;;;;;;;;;;;;;;;21.49;53.06;99249.34;5053558;28;19912;-77
2023/05/23 08:40:26;;;;;;;;;;;;;;;21.56;53.27;99258.03;5052563;28;20413;-77
2023/05/23 08:42:51;;;;;;;;;;;;;;;21.71;52.82;99262.72;5052998;28;19943;-77
2023/05/23 08:45:17;;;;;;;;;;;;;;;21.89;52.76;99261.50;5052834;28;19913;-77
2023/05/23 08:47:43;;;;;;;;;;;;;;;22.03;52.30;99254.63;5053083;28;19995;-77
2023/05/23 08:50:17;;;;;;;;;;;;;;;22.20;50.89;99263.31;5053619;28;19943;-78
2023/05/23 08:52:43;;;;;;;;;;;;;;;22.38;51.88;99258.59;5054008;28;19924;-77
2023/05/23 08:55:10;;;;;;;;;;;;;;;22.38;51.56;99264.78;5051912;28;19917;-78
2023/05/23 08:57:37;;;;;;;;;;;;;;;22.43;50.80;99264.00;5052063;28;19912;-79
2023/05/23 09:00:09;;;;;;;;;;;;;;;22.48;50.69;99264.03;5048901;28;20309;-77
2023/05/23 09:02:34;;;;;;;;;;;;;;;22.39;50.00;99260.22;5051346;28;20327;-77
2023/05/23 09:04:59;;;;;;;;;;;;;;;22.29;50.33;99260.94;5049631;28;19913;-78
2023/05/23 09:07:26;;;;;;;;;;;;;;;22.23;51.34;99263.88;5052026;28;19996;-78
2023/05/23 09:09:51;;;;;;;;;;;;;;;22.31;50.95;99264.22;5052126;28;19913;-77
2023/05/23 09:12:17;;;;;;;;;;;;;;;22.29;51.79;99255.56;5053038;28;19915;-77
2023/05/23 09:14:43;;;;;;;;;;;;;;;22.26;51.23;99255.28;5049153;28;19924;-77
2023/05/23 09:17:08;;;;;;;;;;;;;;;22.26;51.59;99253.41;5052927;28;19913;-77
2023/05/23 09:19:39;;;;;;;;;;;;;;;22.28;51.55;99247.75;5053550;28;19920;-77
2023/05/23 09:22:04;;;;;;;;;;;;;;;22.24;50.84;99247.47;5052545;28;19916;-79
2023/05/23 09:24:34;;;;;;;;;;;;;;;22.21;49.90;99253.38;5052470;28;19908;-77
2023/05/23 09:27:00;;;;;;;;;;;;;;;22.20;51.70;99257.94;5051580;28;19920;-79
2023/05/23 09:29:26;;;;;;;;;;;;;;;22.17;51.52;99245.03;5051923;28;19917;-79
2023/05/23 09:31:51;;;;;;;;;;;;;;;22.43;51.18;99242.47;5051289;28;19917;-79
2023/05/23 09:34:17;;;;;;;;;;;;;;;22.95;50.34;99238.91;5051160;28;20290;-79
2023/05/23 09:36:43;;;;;;;;;;;;;;;23.35;49.38;99243.56;5052007;28;19912;-80
2023/05/23 09:39:10;;;;;;;;;;;;;;;23.47;47.02;99241.41;5051743;28;20393;-77
2023/05/23 09:41:35;;;;;;;;;;;;;;;23.46;47.96;99240.59;5051740;28;20400;-78
2023/05/23 09:44:08;;;;;;;;;;;;;;;23.39;48.69;99250.84;5051540;28;19912;-79
2023/05/23 09:46:34;;;;;;;;;;;;;;;23.29;47.81;99248.13;5053906;28;19928;-78
2023/05/23 09:48:59;;;;;;;;;;;;;;;23.24;48.43;99250.03;5051923;28;20046;-78
2023/05/23 09:51:25;;;;;;;;;;;;;;;23.13;46.41;99251.91;5051827;28;19940;-78
2023/05/23 09:53:51;;;;;;;;;;;;;;;23.05;46.60;99238.97;5050500;28;20026;-78
2023/05/23 09:56:17;;;;;;;;;;;;;;;23.08;47.11;99239.22;5060177;28;20437;-79
2023/05/23 09:58:48;;;;;;;;;;;;;;;23.10;47.49;99234.38;5071643;28;19951;-78
2023/05/23 10:01:14;;;;;;;;;;;;;;;23.35;47.77;99238.19;5055400;28;20000;-78
2023/05/23 10:03:50;;;;;;;;;;;;;;;23.39;47.07;99245.44;5051175;28;20372;-77
2023/05/23 10:06:36;;;;;;;;;;;;;;;23.42;46.92;99241.41;5051395;28;19913;-78
2023/05/23 10:09:03;;;;;;;;;;;;;;;23.32;47.29;99239.53;5051550;28;19974;-77
2023/05/23 10:11:34;;;;;;;;;;;;;;;23.33;47.55;99240.34;5053739;28;20008;-77
2023/05/23 10:14:01;;;;;;;;;;;;;;;23.37;47.04;99244.09;5068429;28;19912;-77
2023/05/23 10:16:30;;;;;;;;;;;;;;;23.37;47.82;99247.59;5062782;28;19943;-77
2023/05/23 10:18:56;;;;;;;;;;;;;;;23.32;47.33;99241.41;5058664;28;19915;-77
2023/05/23 10:21:32;;;;;;;;;;;;;;;23.34;48.04;99241.94;5067245;28;19908;-77
2023/05/23 10:23:58;;;;;;;;;;;;;;;23.37;48.20;99244.09;5063737;28;19917;-76
2023/05/23 10:26:25;;;;;;;;;;;;;;;23.38;47.18;99234.94;5063304;28;20332;-77
2023/05/23 10:28:51;;;;;;;;;;;;;;;23.39;47.55;99233.88;5060467;28;19921;-77
2023/05/23 10:31:16;;;;;;;;;;;;;;;23.42;48.32;99228.75;5058339;28;19909;-79
2023/05/23 10:33:45;;;;;;;;;;;;;;;23.41;48.12;99229.81;5071577;28;19915;-77
2023/05/23 10:36:18;;;;;;;;;;;;;;;23.45;48.20;99235.47;5065736;28;19912;-78
2023/05/23 10:39:00;;;;;;;;;;;;;;;23.40;47.54;99241.69;5074620;28;19973;-78
2023/05/23 10:41:32;;;;;;;;;;;;;;;23.33;47.50;99238.44;5073885;28;19908;-77
2023/05/23 10:44:21;;;;;;;;;;;;;;;23.36;47.86;99237.91;5060973;28;20400;-78
2023/05/23 10:46:54;;;;;;;;;;;;;;;23.37;47.79;99223.34;5067640;28;19920;-76
2023/05/23 10:49:20;;;;;;;;;;;;;;;23.35;47.35;99233.59;5062643;28;19920;-78
2023/05/23 10:51:49;;;;;;;;;;;;;;;23.40;47.34;99241.69;5054898;28;20407;-79
2023/05/23 10:54:17;;;;;;;;;;;;;;;23.42;45.17;99227.94;5074966;28;19909;-77
2023/05/23 10:56:42;;;;;;;;;;;;;;;23.42;46.66;99227.94;5068227;28;19920;-77
2023/05/23 10:59:18;;;;;;;;;;;;;;;23.46;47.08;99224.44;5056669;28;19920;-78
2023/05/23 11:01:43;;;;;;;;;;;;;;;23.51;47.18;99230.91;5070476;28;19919;-77
2023/05/23 11:04:10;;;;;;;;;;;;;;;23.54;46.80;99233.06;5064457;28;19908;-78
2023/05/23 11:06:43;;;;;;;;;;;;;;;23.60;47.20;99226.63;5063308;28;19924;-78
2023/05/23 11:09:09;;;;;;;;;;;;;;;23.67;47.65;99222.56;5070511;28;19915;-77
2023/05/23 11:11:53;;;;;;;;;;;;;;;23.72;47.06;99225.25;5057327;28;19915;-77
2023/05/23 11:14:19;;;;;;;;;;;;;;;23.88;46.20;99222.56;5074322;28;20231;-77
2023/05/23 11:16:48;;;;;;;;;;;;;;;24.15;45.62;99222.22;5060659;28;19913;-77
2023/05/23 11:19:20;;;;;;;;;;;;;;;24.44;46.04;99227.81;5069945;28;19915;-78
2023/05/23 11:22:07;;;;;;;;;;;;;;;24.71;45.05;99215.56;5059331;28;19908;-78
2023/05/23 11:24:49;;;;;;;;;;;;;;;24.75;45.52;99217.69;5063763;28;19952;-77
2023/05/23 11:27:15;;;;;;;;;;;;;;;24.82;44.36;99218.19;5070412;28;19913;-78
2023/05/23 11:29:40;;;;;;;;;;;;;;;25.10;44.93;99230.19;5057937;28;19916;-78
2023/05/23 11:32:09;;;;;;;;;;;;;;;25.51;43.10;99225.31;5067046;28;19909;-78
2023/05/23 11:34:36;;;;;;;;;;;;;;;25.65;43.12;99216.28;5065428;28;19908;-77
2023/05/23 11:37:02;;;;;;;;;;;;;;;25.65;42.50;99219.00;5070357;28;19912;-78
2023/05/23 11:39:27;;;;;;;;;;;;;;;25.57;43.42;99221.47;5072415;28;19908;-78
2023/05/23 11:42:02;;;;;;;;;;;;;;;25.61;42.58;99220.63;5056564;28;19916;-77
2023/05/23 11:44:28;;;;;;;;;;;;;;;25.91;41.92;99224.16;5066863;28;20421;-75
2023/05/23 11:47:00;;;;;;;;;;;;;;;26.08;41.24;99229.13;5070624;28;20867;-76
2023/05/23 11:49:29;;;;;;;;;;;;;;;26.24;42.25;99225.97;5068349;28;19923;-76
2023/05/23 11:51:55;;;;;;;;;;;;;;;26.23;42.75;99220.84;5055720;28;19919;-76
2023/05/23 11:54:27;;;;;;;;;;;;;;;26.24;41.23;99225.16;5062932;28;19913;-78
2023/05/23 11:56:52;;;;;;;;;;;;;;;26.43;40.91;99226.03;5064311;28;19912;-76
2023/05/23 11:59:17;;;;;;;;;;;;;;;26.49;40.03;99219.47;5061051;28;19908;-76
2023/05/23 12:01:43;;;;;;;;;;;;;;;26.93;39.67;99218.34;5069155;28;20341;-77
2023/05/23 12:04:10;;;;;;;;;;;;;;;27.33;39.51;99214.25;5061711;28;19982;-75
2023/05/23 12:06:37;;;;;;;;;;;;;;;27.60;38.01;99216.25;5061024;28;20344;-77
2023/05/23 12:09:02;;;;;;;;;;;;;;;27.76;37.63;99209.47;5053987;28;19913;-77
2023/05/23 12:11:30;;;;;;;;;;;;;;;27.95;36.18;99214.03;5069783;28;19914;-79
2023/05/23 12:13:55;;;;;;;;;;;;;;;28.28;36.48;99212.06;5059381;28;20369;-78
2023/05/23 12:16:20;;;;;;;;;;;;;;;28.63;36.02;99202.38;5062476;28;20051;-79
2023/05/23 12:18:46;;;;;;;;;;;;;;;28.74;38.09;99201.84;5068246;28;19912;-79
2023/05/23 12:21:11;;;;;;;;;;;;;;;28.92;35.00;99205.53;5066986;28;19920;-76
2023/05/23 12:23:38;;;;;;;;;;;;;;;28.88;38.26;99199.13;5061849;28;19912;-76
2023/05/23 12:26:05;;;;;;;;;;;;;;;28.73;34.51;99200.22;5067948;28;19917;-76
2023/05/23 12:28:35;;;;;;;;;;;;;;;28.88;37.30;99199.13;5064115;28;19916;-77
2023/05/23 12:31:11;;;;;;;;;;;;;;;28.90;34.48;99190.66;5064102;28;20404;-77
2023/05/23 12:33:40;;;;;;;;;;;;;;;28.65;37.21;99181.94;5064812;28;19912;-77
2023/05/23 12:36:06;;;;;;;;;;;;;;;28.43;37.35;99179.16;5062804;28;19920;-75
2023/05/23 12:38:36;;;;;;;;;;;;;;;28.44;36.98;99181.59;5070996;28;19912;-78
2023/05/23 12:41:12;;;;;;;;;;;;;;;28.67;34.46;99179.72;5068106;28;19965;-78
2023/05/23 12:43:40;;;;;;;;;;;;;;;28.92;34.82;99167.50;5066372;28;19908;-77
2023/05/23 12:46:06;;;;;;;;;;;;;;;28.94;35.29;99170.72;5066999;28;19970;-78